Terminal Aerodrome Forecast
Issued by NWS

Home | Current Version | Previous Version | Text Only | Print | Product List | Glossary On
Versions: 1 2 3 4 5 6 7 8 9 10 11 12 13 14 15 16 17
000
FTUS46 KSTO 280500 RRA
TAFSAC
TAF
KSAC 280543Z 2806/2906 VRB04KT 1SM BR SKC
     FM280800 VRB03KT 1/2SM FG SKC
      TEMPO 2812/2816 1/4SM FG BKN002
     FM282000 18005KT 6SM HZ SCT150 BKN200
     FM290300 VRB04KT 3SM -RA OVC050=

USA.gov is the U.S. government's official web portal to all federal, state and local government web resources and services.